Latest Weather Observations for McCluer Island

IDD60801

Issued at 7:05 pm CST Wednesday 23 April 2014 (issued every 30 minutes, with the page automatically refreshed every 10 minutes)

About weather observations | Map of weather stations | Latest weather observations for NT | Other Formats
Station Details ID: 014274 Name: MCCLUER ISLAND Lat: -11.05 Lon: 132.98 Height: 1.4 m
Data from the previous 72 hours. | See also: Recent months at McCluer Island
Date/Time
CST
Temp
°C
App
Temp
°C
Dew
Point
Rel
Hum
%
Delta-T
°C
Wind Press
QNH
hPa
Press
MSL
hPa
Rain
since 9 am
mm
Dir
 
Spd
km/h
Gust
km/h
Spd
kts
Gust
kts
23/07:00pm 27.6 32.6 27.6 100 0.0 E 17 20 9 11 1005.4 - 1.0
23/06:30pm 27.5 30.7 27.5 100 0.0 ENE 26 32 14 17 1005.6 - 1.0
23/06:00pm 27.7 31.4 27.2 97 0.4 ENE 22 26 12 14 1005.4 1005.4 1.0
23/05:30pm 27.6 30.4 26.9 96 0.5 NE 26 30 14 16 1005.1 - 1.0
23/05:00pm 27.8 31.4 27.6 99 0.1 NE 24 26 13 14 1005.2 - 1.0
23/04:30pm 27.8 30.1 27.8 100 0.0 NNE 32 37 17 20 1005.3 - 1.0
23/04:00pm 28.3 31.9 27.6 96 0.5 NE 24 28 13 15 1005.2 - 1.0
23/03:30pm 28.8 33.2 27.6 93 0.9 E 20 26 11 14 1004.5 - 1.0
23/03:00pm 28.8 33.3 27.7 94 0.8 E 20 26 11 14 1004.9 1004.9 1.0
23/02:30pm 28.9 33.4 27.7 93 0.9 E 20 24 11 13 1005.3 - 1.0
23/02:00pm 28.8 33.4 27.6 93 0.9 E 19 22 10 12 1006.1 - 1.0
23/01:30pm 28.5 33.9 27.1 92 1.0 E 13 15 7 8 1006.3 - 1.0
23/01:00pm 27.6 31.6 26.7 95 0.6 NE 19 22 10 12 1006.8 - 0.8
23/12:30pm 27.2 31.3 27.2 100 0.0 NNE 20 24 11 13 1007.4 - 0.8
23/12:00pm 29.4 33.0 26.4 84 2.1 E 20 24 11 13 1007.7 1007.7 0.2
23/11:30am 29.3 32.7 25.9 82 2.4 ESE 19 20 10 11 1008.2 - 0.2
23/11:00am 29.0 32.8 26.4 86 1.9 ESE 19 22 10 12 1008.6 - 0.2
23/10:30am 28.6 32.4 26.4 88 1.6 ESE 19 22 10 12 1008.6 - 0.0
23/10:00am 28.6 32.3 26.6 89 1.4 E 20 24 11 13 1009.0 - 0.0
23/09:30am 28.3 31.9 26.5 90 1.3 ENE 20 26 11 14 1009.0 - 0.0
23/09:00am 28.2 31.4 26.4 90 1.3 E 22 28 12 15 1008.7 1008.7 38.8
23/08:30am 27.6 31.0 26.7 95 0.6 E 22 28 12 15 1008.4 - 38.8
23/08:00am 27.7 31.3 27.0 96 0.5 E 22 28 12 15 1008.0 - 38.8
23/07:30am 27.7 31.8 26.3 92 1.0 E 17 20 9 11 1007.8 - 38.8
23/07:00am 27.0 31.2 26.5 97 0.4 ESE 17 20 9 11 1007.5 - 38.8
23/06:30am 27.5 31.3 25.9 91 1.1 E 17 20 9 11 1007.3 - 38.8
23/06:00am 27.5 30.5 25.5 89 1.4 E 20 22 11 12 1007.4 1007.4 38.8
23/05:30am 27.2 29.3 25.4 90 1.3 E 24 28 13 15 1007.2 - 38.8
23/05:00am 27.1 30.7 26.4 96 0.5 E 20 22 11 12 1007.2 - 38.8
23/04:30am 26.8 30.7 26.6 99 0.1 E 19 20 10 11 1007.1 - 38.8
23/04:00am 26.6 30.9 26.6 100 0.0 E 17 19 9 10 1007.1 - 38.8
23/03:30am 26.5 29.7 26.5 100 0.0 E 22 30 12 16 1007.3 - 38.8
23/03:00am 27.1 31.1 27.1 100 0.0 ESE 20 26 11 14 1007.5 1007.5 38.8
23/02:30am 27.2 30.5 27.2 100 0.0 ESE 24 32 13 17 1007.7 - 38.8
23/02:00am 26.9 30.4 26.9 100 0.0 SE 22 28 12 15 1008.0 - 38.8
23/01:30am 26.7 30.1 26.7 100 0.0 SE 22 30 12 16 1008.0 - 38.8
23/01:00am 26.6 29.5 26.6 100 0.0 SE 24 35 13 19 1008.4 - 38.8
23/12:30am 26.5 29.7 26.5 100 0.0 SE 22 30 12 16 1008.5 - 38.8
23/12:00am 26.2 29.8 26.2 100 0.0 SE 19 28 10 15 1008.9 1008.9 38.8
 
Date/Time
CST
Temp
°C
App
Temp
°C
Dew
Point
Rel
Hum
%
Delta-T
°C
Wind Press
QNH
hPa
Press
MSL
hPa
Rain
since 9 am
mm
Dir
 
Spd
km/h
Gust
km/h
Spd
kts
Gust
kts
22/11:30pm 26.0 29.3 26.0 100 0.0 SE 20 32 11 17 1009.2 - 38.8
22/11:00pm 26.2 28.5 26.2 100 0.0 SE 26 35 14 19 1009.6 - 38.6
22/10:30pm 25.6 27.9 25.6 100 0.0 SE 24 32 13 17 1009.7 - 38.6
22/10:00pm 25.3 27.0 25.3 100 0.0 SE 26 39 14 21 1009.9 - 38.2
22/09:30pm 25.2 26.5 25.2 100 0.0 SE 28 35 15 19 1010.0 - 37.8
22/09:17pm 25.2 26.5 25.2 100 0.0 SE 28 50 15 27 1009.8 - 35.6
22/09:00pm 25.2 22.3 25.2 100 0.0 ESE 50 59 27 32 1009.9 1009.9 26.6
22/08:49pm 26.3 26.6 26.3 100 0.0 ESE 37 54 20 29 1009.6 - 22.4
22/08:30pm 25.8 28.6 25.8 100 0.0 SE 22 33 12 18 1009.4 - 20.6
22/08:00pm 26.0 26.1 26.0 100 0.0 ESE 37 44 20 24 1009.3 - 11.0
22/07:35pm 27.5 26.6 26.3 93 0.9 E 43 48 23 26 1008.8 - 0.0
22/07:30pm 28.5 30.5 27.4 94 0.8 NE 32 37 17 20 1008.4 - 0.0
22/07:00pm 29.1 30.7 27.7 92 1.0 ENE 35 41 19 22 1008.0 - 0.0
22/06:30pm 29.2 30.6 27.4 90 1.3 ENE 35 39 19 21 1007.5 - 0.0
22/06:00pm 29.5 31.2 27.3 88 1.6 E 33 41 18 22 1007.1 1007.1 0.0
22/05:30pm 29.6 31.2 26.8 85 2.0 E 32 37 17 20 1006.7 - 0.0
22/05:00pm 29.7 31.5 27.1 86 1.9 E 32 35 17 19 1006.3 - 0.0
22/04:30pm 29.5 31.0 26.7 85 2.0 E 32 37 17 20 1006.1 - 0.0
22/04:00pm 29.5 30.5 26.3 83 2.3 E 33 37 18 20 1006.1 - 0.0
22/03:30pm 29.4 30.4 26.0 82 2.4 ESE 32 39 17 21 1006.1 - 0.0
22/03:00pm 29.8 31.0 26.6 83 2.3 ESE 33 37 18 20 1006.4 1006.4 0.0
22/02:30pm 29.4 30.2 26.0 82 2.4 ESE 33 41 18 22 1006.7 - 0.0
22/02:00pm 30.1 29.5 25.6 77 3.2 ESE 39 44 21 24 1006.8 - 0.0
22/01:30pm 30.6 30.7 25.4 74 3.7 ESE 35 43 19 23 1007.2 - 0.0
22/01:00pm 29.8 30.4 25.3 77 3.2 SE 32 41 17 22 1007.5 - 0.0
22/12:30pm 29.4 30.4 25.4 79 2.8 SE 30 39 16 21 1007.8 - 0.0
22/12:00pm 29.2 29.8 25.6 81 2.5 SE 33 43 18 23 1008.4 1008.4 0.0
22/11:30am 28.8 30.6 25.4 82 2.4 SE 26 37 14 20 1009.1 - 0.0
22/11:00am 28.7 29.5 25.7 84 2.1 ESE 32 41 17 22 1009.7 - 0.0
22/10:30am 28.7 28.8 24.9 80 2.7 ESE 33 46 18 25 1010.1 - 0.0
22/10:00am 29.8 30.0 25.1 76 3.3 ESE 33 44 18 24 1010.4 - 0.0
22/09:30am 28.5 29.4 25.3 83 2.2 SE 30 39 16 21 1010.6 - 0.0
22/09:00am 29.3 29.7 25.1 78 3.0 SE 32 41 17 22 1010.3 1010.3 0.0
22/08:30am 29.1 30.3 25.1 79 2.8 SE 28 39 15 21 1010.1 - 0.0
22/08:00am 28.3 29.8 24.9 82 2.4 SE 26 35 14 19 1009.8 - 0.0
22/07:30am 27.7 29.8 24.7 84 2.1 ESE 22 33 12 18 1009.6 - 0.0
22/07:00am 27.4 28.5 24.3 83 2.1 ESE 26 35 14 19 1009.6 - 0.0
22/06:30am 27.5 28.8 24.7 85 1.9 SE 26 35 14 19 1009.3 - 0.0
22/06:00am 27.4 29.1 24.7 85 1.9 SE 24 33 13 18 1008.5 1008.5 0.0
22/05:30am 27.8 28.7 24.6 83 2.2 ESE 28 35 15 19 1008.3 - 0.0
22/05:00am 27.8 28.2 24.4 82 2.4 ESE 30 39 16 21 1008.4 - 0.0
22/04:30am 27.8 28.2 24.4 82 2.4 ESE 30 39 16 21 1008.3 - 0.0
22/04:00am 27.9 28.1 24.1 80 2.6 ESE 30 37 16 20 1008.3 - 0.0
22/03:30am 28.0 28.3 23.6 77 3.0 SE 28 35 15 19 1008.3 - 0.0
22/03:00am 27.8 29.6 24.2 81 2.5 SE 22 32 12 17 1008.2 1008.2 0.0
22/02:30am 28.1 29.1 24.1 79 2.8 SE 26 35 14 19 1008.2 - 0.0
22/02:00am 28.2 28.5 24.2 79 2.8 SE 30 41 16 22 1008.4 - 0.0
22/01:30am 28.1 30.1 25.1 84 2.1 SE 24 33 13 18 1008.8 - 0.0
22/01:00am 27.9 31.7 26.5 92 1.0 SE 19 24 10 13 1009.1 - 0.0
22/12:30am 27.9 32.1 26.5 92 1.0 SE 17 24 9 13 1009.3 - 0.0
22/12:00am 28.3 32.5 26.5 90 1.3 SE 17 24 9 13 1009.4 1009.4 0.0
 
Date/Time
CST
Temp
°C
App
Temp
°C
Dew
Point
Rel
Hum
%
Delta-T
°C
Wind Press
QNH
hPa
Press
MSL
hPa
Rain
since 9 am
mm
Dir
 
Spd
km/h
Gust
km/h
Spd
kts
Gust
kts
21/11:30pm 28.6 31.8 25.8 85 2.0 SE 20 30 11 16 1009.7 - 0.0
21/11:00pm 28.8 31.1 25.6 83 2.3 ESE 24 32 13 17 1009.5 - 0.0
21/10:30pm 28.9 30.4 26.1 85 2.0 ESE 30 35 16 19 1009.6 - 0.0
21/10:00pm 29.3 29.8 26.1 83 2.3 ESE 35 39 19 21 1009.8 - 0.0
21/09:30pm 29.3 30.2 26.1 83 2.3 ESE 33 39 18 21 1009.8 - 0.0
21/09:00pm 29.3 30.5 26.5 85 2.0 ESE 33 39 18 21 1009.8 1009.8 0.0
21/08:30pm 29.4 29.8 26.0 82 2.4 E 35 41 19 22 1009.6 - 0.0
21/08:00pm 29.4 30.2 26.0 82 2.4 ESE 33 41 18 22 1009.5 - 0.0
21/07:30pm 29.3 30.1 25.9 82 2.4 ESE 33 39 18 21 1009.2 - 0.0
21/07:00pm 29.4 30.7 26.4 84 2.1 ESE 32 37 17 20 1008.9 - 0.0
21/06:30pm 29.5 29.8 25.7 80 2.7 ESE 35 43 19 23 1008.8 - 0.0
21/06:00pm 29.8 30.4 26.2 81 2.6 ESE 35 41 19 22 1008.7 1008.7 0.0
21/05:30pm 29.8 30.6 26.0 80 2.7 ESE 33 43 18 23 1008.2 - 0.0
21/05:00pm 29.6 29.2 25.3 77 3.0 ESE 37 43 20 23 1008.1 - 0.0
21/04:30pm 29.8 32.1 26.8 84 2.2 ESE 28 37 15 20 1007.8 - 0.0
21/04:00pm 30.2 31.0 26.6 81 2.6 ESE 35 41 19 22 1007.5 - 0.0
21/03:30pm 30.0 30.4 26.0 79 2.8 ESE 35 43 19 23 1007.5 - 0.0
21/03:00pm 30.1 31.2 26.9 83 2.3 ESE 35 41 19 22 1007.7 1007.7 0.0
21/02:30pm 29.7 32.0 25.7 79 2.8 SE 24 39 13 21 1008.0 - 0.0
21/02:00pm 30.1 30.5 26.0 78 2.9 E 35 43 19 23 1008.1 - 0.0
21/01:30pm 30.1 30.2 26.0 78 2.9 E 37 44 20 24 1008.2 - 0.0
21/01:00pm 29.5 28.5 25.0 77 3.2 E 39 46 21 25 1008.2 - 0.0
21/12:50pm 28.9 28.3 26.1 85 2.0 E 41 48 22 26 1008.2 - 0.0
21/12:30pm 29.6 29.2 25.8 80 2.7 ESE 39 46 21 25 1008.5 - 0.0
21/12:00pm 29.9 29.7 25.6 78 3.0 ESE 37 43 20 23 1009.0 1009.0 0.0
21/11:30am 29.7 29.6 25.7 79 2.8 ESE 37 44 20 24 1009.5 - 0.0
21/11:00am 29.0 28.6 25.2 80 2.7 ESE 37 46 20 25 1010.0 - 0.0
21/10:30am 29.3 28.8 25.7 81 2.5 ESE 39 46 21 25 1010.3 - 0.0
21/10:00am 29.1 28.2 25.1 79 2.8 ESE 39 48 21 26 1010.2 - 0.0
21/09:30am 29.2 28.5 25.4 80 2.7 ESE 39 48 21 26 1010.0 - 0.0
21/09:00am 29.1 28.6 25.1 79 2.8 ESE 37 50 20 27 1009.7 1009.7 0.0
21/08:30am 28.8 27.1 24.4 77 3.1 ESE 41 48 22 26 1009.3 - 0.0
21/08:00am 28.5 27.2 24.5 79 2.8 ESE 39 46 21 25 1009.1 - 0.0
21/07:30am 28.2 28.0 25.0 83 2.2 ESE 35 44 19 24 1009.1 - 0.0
21/07:00am 27.9 25.5 23.9 79 2.8 ESE 43 50 23 27 1008.8 - 0.0
21/06:30am 27.9 26.4 23.5 77 3.0 ESE 37 48 20 26 1008.4 - 0.0
21/06:00am 27.4 26.6 24.0 82 2.3 ESE 35 46 19 25 1008.2 1008.2 0.0
21/05:30am 27.5 28.5 24.7 85 1.9 SE 28 33 15 18 1008.1 - 0.0
21/05:00am 27.5 27.9 24.5 84 2.1 SE 30 41 16 22 1008.0 - 0.0
21/04:30am 27.3 28.2 24.6 85 1.9 SE 28 37 15 20 1008.1 - 0.0
21/04:00am 27.3 28.6 24.7 86 1.8 SE 26 35 14 19 1008.1 - 0.0
21/03:30am 27.5 28.8 24.7 85 1.9 SE 26 39 14 21 1007.9 - 0.0
21/03:00am 27.7 29.4 24.7 84 2.1 SE 24 32 13 17 1007.8 1007.8 0.0
21/02:30am 27.6 28.7 24.4 83 2.2 SE 26 35 14 19 1007.8 - 0.0
21/02:00am 27.6 28.7 24.4 83 2.2 SE 26 37 14 20 1008.0 - 0.0
21/01:30am 27.8 28.2 24.4 82 2.4 SE 30 39 16 21 1008.3 - 0.0
21/01:00am 28.3 27.9 24.7 81 2.5 ESE 35 44 19 24 1008.7 - 0.0
21/12:30am 27.8 30.1 25.0 85 2.0 SE 22 32 12 17 1009.1 - 0.0
21/12:00am 27.6 29.8 24.8 85 2.0 SE 22 30 12 16 1009.2 1009.2 0.0
 
Date/Time
CST
Temp
°C
App
Temp
°C
Dew
Point
Rel
Hum
%
Delta-T
°C
Wind Press
QNH
hPa
Press
MSL
hPa
Rain
since 9 am
mm
Dir
 
Spd
km/h
Gust
km/h
Spd
kts
Gust
kts
20/11:30pm 27.6 30.0 25.2 87 1.7 SE 22 32 12 17 1009.3 - 0.0
20/11:00pm 27.6 30.0 25.2 87 1.7 SE 22 33 12 18 1009.5 - 0.0
20/10:30pm 27.7 30.8 25.7 89 1.4 SSE 20 32 11 17 1009.7 - 0.0
20/10:00pm 28.1 31.7 26.1 89 1.4 SE 19 28 10 15 1009.9 - 0.0
20/09:30pm 27.9 31.1 25.9 89 1.4 SE 20 28 11 15 1009.9 - 0.0
20/09:00pm 28.4 31.1 25.6 85 2.0 SE 22 33 12 18 1009.8 1009.8 0.0
20/08:43pm 28.8 29.4 24.8 79 2.8 ESE 30 48 16 26 1009.6 - 0.0
20/08:30pm 29.8 28.3 24.7 74 3.6 ESE 41 48 22 26 1009.5 - 0.0
20/08:00pm 29.7 28.3 24.3 73 3.8 ESE 39 46 21 25 1009.1 - 0.0
20/07:30pm 30.0 28.6 24.9 74 3.6 ESE 41 48 22 26 1008.8 - 0.0

Other Formats:

Comma delimited format used in spreadsheet applications
http://www.bom.gov.au/fwo/IDD60801/IDD60801.94135.axf

JavaScript Object Notation format (JSON) in row-major order
http://www.bom.gov.au/fwo/IDD60801/IDD60801.94135.json